Time;durP1;ratioP1;P1;durP2;ratioP2;P2;SDS_P1;SDS_P2;PMS_P1;PMS_P2;Temp;Humidity;BMP_temperature;BMP_pressure;BME280_temperature;BME280_humidity;BME280_pressure;Samples;Min_cycle;Max_cycle;Signal;HPM_P1;HPM_P2
2021/12/14 00:00:57;;;;;;;14.45;8.40;;;;;;;-0.16;73.83;95144.91;5071203;28;20074;-75
2021/12/14 00:03:27;;;;;;;14.23;8.00;;;;;;;-0.21;73.70;95143.41;5072448;28;20029;-76
2021/12/14 00:05:53;;;;;;;12.45;7.28;;;;;;;-0.20;73.76;95138.22;5054215;28;20528;-75
2021/12/14 00:08:18;;;;;;;14.40;7.93;;;;;;;-0.12;72.76;95148.19;5070752;28;20033;-75
2021/12/14 00:11:25;;;;;;;12.43;7.35;;;;;;;-0.12;73.37;95151.56;5053847;28;20028;-75
2021/12/14 00:16:04;;;;;;;12.32;7.50;;;;;;;-0.13;72.80;95144.78;5054821;28;20024;-75
2021/12/14 00:18:32;;;;;;;12.43;7.15;;;;;;;-0.24;72.68;95146.91;5053913;28;20109;-75
2021/12/14 00:21:07;;;;;;;10.43;6.90;;;;;;;-0.21;72.89;95148.50;5070328;28;20033;-76
2021/12/14 00:26:17;;;;;;;11.48;6.45;;;;;;;-0.17;72.94;95162.81;5056445;28;20105;-75
2021/12/14 00:28:42;;;;;;;12.45;7.25;;;;;;;-0.13;72.98;95162.66;5053498;28;20566;-76
2021/12/14 00:31:10;;;;;;;11.35;6.68;;;;;;;-0.15;72.11;95167.00;5071370;28;20028;-75
2021/12/14 00:33:36;;;;;;;10.55;6.72;;;;;;;-0.21;72.70;95162.09;5070273;28;20443;-75
2021/12/14 00:36:02;;;;;;;12.93;8.25;;;;;;;-0.18;72.97;95161.16;5070185;28;20110;-75
2021/12/14 00:38:28;;;;;;;12.63;7.65;;;;;;;-0.13;72.80;95162.66;5070522;28;20035;-74
2021/12/14 00:40:59;;;;;;;11.07;7.13;;;;;;;-0.27;72.89;95170.00;5071320;28;20449;-75
2021/12/14 00:43:24;;;;;;;13.75;7.90;;;;;;;-0.21;72.88;95164.66;5069941;28;20490;-75
2021/12/14 00:45:51;;;;;;;14.27;8.63;;;;;;;-0.26;73.16;95167.38;5053376;28;20111;-75
2021/12/14 00:48:17;;;;;;;13.80;7.75;;;;;;;-0.25;73.00;95168.22;5053643;28;20032;-75
2021/12/14 00:50:44;;;;;;;13.40;8.27;;;;;;;-0.22;72.44;95170.66;5069876;28;20085;-75
2021/12/14 00:53:10;;;;;;;13.50;7.75;;;;;;;-0.21;73.09;95166.38;5053670;28;20040;-76
2021/12/14 00:55:42;;;;;;;15.57;8.18;;;;;;;-0.26;73.51;95164.81;5069871;28;20465;-76
2021/12/14 00:58:08;;;;;;;11.82;6.97;;;;;;;-0.25;72.73;95166.50;5069998;28;20037;-75
2021/12/14 01:00:40;;;;;;;13.57;8.50;;;;;;;-0.31;73.39;95174.34;5070997;28;20025;-75
2021/12/14 01:03:06;;;;;;;13.93;8.23;;;;;;;-0.32;74.03;95164.19;5054131;28;20038;-75
2021/12/14 01:05:34;;;;;;;15.50;8.40;;;;;;;-0.30;73.85;95172.66;5069885;28;20033;-75
2021/12/14 01:08:01;;;;;;;14.15;7.38;;;;;;;-0.19;72.92;95174.84;5053519;28;20040;-75
2021/12/14 01:10:33;;;;;;;12.70;7.18;;;;;;;-0.27;73.35;95165.72;5053097;28;20025;-76
2021/12/14 01:13:04;;;;;;;12.10;7.82;;;;;;;-0.27;73.71;95167.44;5053469;28;20414;-75
2021/12/14 01:16:00;;;;;;;12.57;7.23;;;;;;;-0.24;72.79;95172.44;5069773;28;20029;-75
2021/12/14 01:21:43;;;;;;;14.43;7.60;;;;;;;-0.33;73.82;95162.53;5070096;28;20087;-75
2021/12/14 01:24:21;;;;;;;10.75;6.43;;;;;;;-0.20;73.20;95160.38;5055693;28;20033;-75
2021/12/14 01:26:47;;;;;;;15.02;8.32;;;;;;;-0.32;73.63;95161.66;5070794;28;20062;-76
2021/12/14 01:29:15;;;;;;;12.70;7.97;;;;;;;-0.41;73.76;95161.97;5039982;28;20025;-75
2021/12/14 01:31:42;;;;;;;13.38;7.78;;;;;;;-0.40;73.69;95163.63;5073678;28;20043;-75
2021/12/14 01:34:16;;;;;;;12.70;7.75;;;;;;;-0.37;73.86;95155.88;5073821;28;20036;-75
2021/12/14 01:36:46;;;;;;;12.73;7.68;;;;;;;-0.39;73.84;95157.63;5057027;28;20035;-75
2021/12/14 01:42:11;;;;;;;13.30;7.32;;;;;;;-0.29;73.61;95167.47;5075137;28;20113;-75
2021/12/14 01:44:39;;;;;;;13.73;7.75;;;;;;;-0.33;74.33;95165.09;5057876;28;20035;-75
2021/12/14 01:47:19;;;;;;;12.68;7.63;;;;;;;-0.29;73.20;95151.31;5073507;28;20043;-75
2021/12/14 01:49:45;;;;;;;12.30;6.97;;;;;;;-0.29;73.91;95149.59;5057190;28;20036;-75
2021/12/14 01:52:14;;;;;;;10.80;7.65;;;;;;;-0.22;73.26;95165.56;5056672;28;20040;-75
2021/12/14 01:54:42;;;;;;;12.80;7.47;;;;;;;-0.38;73.62;95141.44;5073216;28;20028;-75
2021/12/14 01:57:09;;;;;;;12.50;7.50;;;;;;;-0.21;73.94;95167.22;5056856;28;20040;-75
2021/12/14 01:59:38;;;;;;;13.90;7.50;;;;;;;-0.21;73.63;95162.09;5073202;28;20433;-75
2021/12/14 02:02:20;;;;;;;12.52;7.50;;;;;;;-0.27;74.04;95168.25;5074716;28;20028;-75
2021/12/14 02:04:47;;;;;;;15.05;8.20;;;;;;;-0.34;74.10;95168.53;5058642;28;20387;-75
2021/12/14 02:07:13;;;;;;;12.80;8.00;;;;;;;-0.31;73.94;95169.25;5072920;28;20072;-76
2021/12/14 02:09:38;;;;;;;11.82;7.35;;;;;;;-0.26;74.15;95164.81;5074106;28;20609;-75
2021/12/14 02:12:10;;;;;;;14.43;8.07;;;;;;;-0.15;73.96;95166.16;5056323;28;20453;-75
2021/12/14 02:14:36;;;;;;;16.23;8.98;;;;;;;-0.28;73.61;95160.63;5073242;28;20028;-75
2021/12/14 02:17:03;;;;;;;14.55;8.32;;;;;;;-0.22;74.38;95160.44;5074178;28;20062;-75
2021/12/14 02:19:28;;;;;;;12.82;7.93;;;;;;;-0.21;74.03;95162.09;5089684;28;20041;-75
2021/12/14 02:21:56;;;;;;;12.82;7.68;;;;;;;-0.28;73.29;95156.41;5072641;28;20040;-75
2021/12/14 02:24:22;;;;;;;12.40;8.00;;;;;;;-0.27;73.33;95160.59;5072857;28;20033;-76
2021/12/14 02:26:48;;;;;;;12.38;7.20;;;;;;;-0.31;72.93;95166.69;5073858;28;20115;-75
2021/12/14 02:29:26;;;;;;;11.43;8.18;;;;;;;-0.24;73.37;95164.78;5072561;28;20043;-75
2021/12/14 02:31:52;;;;;;;14.68;8.05;;;;;;;-0.23;74.36;95168.97;5072603;28;20029;-75
2021/12/14 02:34:18;;;;;;;12.98;7.90;;;;;;;-0.20;73.30;95160.38;5072550;28;20025;-75
2021/12/14 02:36:45;;;;;;;30.90;14.93;;;;;;;-0.35;73.41;95175.34;5055778;28;20048;-75
2021/12/14 02:39:24;;;;;;;25.50;12.00;;;;;;;-0.35;74.02;95169.41;5072368;28;20033;-75
2021/12/14 02:41:53;;;;;;;17.60;9.00;;;;;;;-0.26;73.51;95171.66;5072581;28;20048;-75
2021/12/14 02:44:18;;;;;;;18.17;8.82;;;;;;;-0.32;73.98;95169.31;5073625;28;20500;-76
2021/12/14 02:46:46;;;;;;;17.40;9.65;;;;;;;-0.29;73.90;95167.47;5055518;28;20036;-75
2021/12/14 02:49:14;;;;;;;16.73;8.00;;;;;;;-0.20;73.50;95168.88;5072156;28;20077;-76
2021/12/14 02:51:48;;;;;;;17.35;8.88;;;;;;;-0.18;73.94;95172.22;5055650;28;20032;-75
2021/12/14 02:54:16;;;;;;;13.38;8.60;;;;;;;-0.23;73.75;95171.53;5073475;28;20052;-75
2021/12/14 02:56:43;;;;;;;13.75;8.07;;;;;;;-0.22;74.03;95173.22;5071949;28;20058;-75
2021/12/14 02:59:17;;;;;;;16.30;8.82;;;;;;;-0.17;74.48;95175.59;5073234;28;20119;-75
2021/12/14 03:01:43;;;;;;;17.15;8.40;;;;;;;-0.31;74.59;95165.84;5071959;28;20562;-75
2021/12/14 03:04:09;;;;;;;15.52;9.48;;;;;;;-0.25;74.64;95171.59;5038697;28;20036;-76
2021/12/14 03:06:46;;;;;;;21.08;11.57;;;;;;;-0.21;74.99;95169.78;5071844;28;20158;-75
2021/12/14 03:09:36;;;;;;;25.88;15.02;;;;;;;-0.27;74.37;95172.53;5071862;28;20502;-75
2021/12/14 03:12:12;;;;;;;17.02;10.57;;;;;;;-0.30;74.99;95172.66;5072083;28;20029;-75
2021/12/14 03:14:38;;;;;;;16.83;10.45;;;;;;;-0.44;75.23;95149.31;5071787;28;20040;-75
2021/12/14 03:17:04;;;;;;;15.98;9.98;;;;;;;-0.31;75.27;95160.75;5073300;28;20040;-75
2021/12/14 03:19:29;;;;;;;17.77;11.40;;;;;;;-0.37;75.78;95176.28;5072888;28;20514;-75
2021/12/14 03:21:55;;;;;;;16.13;10.85;;;;;;;-0.32;76.08;95175.25;5072975;28;20040;-75
2021/12/14 03:24:21;;;;;;;13.85;9.50;;;;;;;-0.24;75.77;95187.75;5071607;28;20025;-75
2021/12/14 03:26:51;;;;;;;14.23;9.20;;;;;;;-0.38;75.83;95187.41;5038353;28;20028;-75
2021/12/14 03:29:22;;;;;;;15.68;9.40;;;;;;;-0.38;75.60;95184.84;5071503;28;20059;-75
2021/12/14 03:31:49;;;;;;;13.57;7.55;;;;;;;-0.31;74.99;95182.00;5054670;28;20124;-75
2021/12/14 03:34:27;;;;;;;12.93;8.35;;;;;;;-0.36;75.91;95185.59;5054883;28;20582;-75
2021/12/14 03:37:01;;;;;;;11.90;7.68;;;;;;;-0.32;75.54;95184.63;5056084;28;20458;-75
2021/12/14 03:39:30;;;;;;;14.25;8.98;;;;;;;-0.26;75.74;95185.25;5071278;28;20037;-75
2021/12/14 03:41:58;;;;;;;14.60;7.97;;;;;;;-0.22;75.99;95201.31;5071302;28;20470;-76
2021/12/14 03:44:31;;;;;;;15.98;10.07;;;;;;;-0.33;75.99;95191.47;5071178;28;20039;-75
2021/12/14 03:47:05;;;;;;;12.65;8.02;;;;;;;-0.31;75.67;95191.38;5054767;28;20040;-76
2021/12/14 03:49:35;;;;;;;15.77;9.40;;;;;;;-0.27;76.24;95193.78;5070878;28;20043;-75
2021/12/14 03:52:02;;;;;;;14.13;9.00;;;;;;;-0.41;76.47;95193.44;5037390;28;20036;-75
2021/12/14 03:54:27;;;;;;;13.75;8.40;;;;;;;-0.39;76.65;95190.81;5070984;28;20058;-75
2021/12/14 03:56:53;;;;;;;15.57;8.98;;;;;;;-0.42;76.25;95188.38;5072258;28;20466;-75
2021/12/14 03:59:19;;;;;;;13.98;8.98;;;;;;;-0.41;76.63;95200.28;5054686;28;20478;-75
2021/12/14 04:01:45;;;;;;;15.13;9.65;;;;;;;-0.42;76.17;95193.47;5054219;28;20033;-75
2021/12/14 04:04:24;;;;;;;21.52;11.82;;;;;;;-0.37;75.69;95196.72;5070732;28;20025;-75
2021/12/14 04:06:51;;;;;;;18.23;11.23;;;;;;;-0.35;76.01;95200.06;5055603;28;20037;-76
2021/12/14 04:09:17;;;;;;;18.25;10.90;;;;;;;-0.36;76.27;95204.34;5054268;28;20039;-76
2021/12/14 04:11:44;;;;;;;16.67;10.32;;;;;;;-0.28;76.09;95198.94;5054020;28;20127;-75
2021/12/14 04:14:09;;;;;;;18.45;10.32;;;;;;;-0.33;75.33;95203.41;5070660;28;20031;-76
2021/12/14 04:16:36;;;;;;;16.48;9.65;;;;;;;-0.29;75.92;95205.78;5070476;28;20063;-75
2021/12/14 04:19:06;;;;;;;17.25;10.20;;;;;;;-0.37;76.60;95201.81;5070353;28;20036;-76
2021/12/14 04:21:34;;;;;;;17.48;11.48;;;;;;;-0.38;76.61;95206.09;5053626;28;20466;-75
2021/12/14 04:23:59;;;;;;;21.08;13.68;;;;;;;-0.37;76.04;95205.19;5070449;28;20103;-75
2021/12/14 04:26:26;;;;;;;25.65;15.98;;;;;;;-0.42;76.07;95204.50;5071523;28;20052;-75
2021/12/14 04:28:53;;;;;;;19.65;11.20;;;;;;;-0.39;76.20;95204.44;5053803;28;20056;-76
2021/12/14 04:31:19;;;;;;;27.25;17.85;;;;;;;-0.39;76.43;95208.69;5070369;28;20028;-76
2021/12/14 04:33:46;;;;;;;25.65;15.10;;;;;;;-0.34;76.93;95211.91;5053570;28;20025;-76
2021/12/14 04:36:13;;;;;;;22.23;14.00;;;;;;;-0.40;76.46;95209.59;5053741;28;20037;-76
2021/12/14 04:38:49;;;;;;;18.88;11.95;;;;;;;-0.28;76.31;95220.22;5053897;28;20060;-76
2021/12/14 04:52:16;;;;;;;15.85;9.98;;;;;;;-0.39;76.53;95221.44;5056530;28;20422;-76
2021/12/14 04:54:43;;;;;;;15.93;10.23;;;;;;;-0.41;76.31;95215.59;5053221;28;20024;-76
2021/12/14 04:57:23;;;;;;;21.23;11.75;;;;;;;-0.35;75.94;95220.47;5069944;28;20395;-76
2021/12/14 04:59:49;;;;;;;17.25;10.68;;;;;;;-0.40;76.36;95207.84;5069889;28;20083;-76
2021/12/14 05:02:19;;;;;;;18.52;9.93;;;;;;;-0.32;76.40;95210.16;5069115;28;20569;-76
2021/12/14 05:04:44;;;;;;;21.98;12.73;;;;;;;-0.46;76.48;95224.22;5053396;28;20498;-76
2021/12/14 05:07:46;;;;;;;20.92;12.40;;;;;;;-0.41;76.47;95220.69;5069902;28;20029;-76
2021/12/14 05:10:16;;;;;;;23.88;11.95;;;;;;;-0.37;76.62;95232.44;5058242;28;20410;-76
2021/12/14 05:12:41;;;;;;;18.80;10.57;;;;;;;-0.39;76.32;95229.97;5070041;28;20041;-76
2021/12/14 05:15:08;;;;;;;16.83;10.32;;;;;;;-0.34;76.07;95225.53;5069580;28;20410;-76
2021/12/14 05:17:35;;;;;;;18.75;11.27;;;;;;;-0.33;76.96;95231.47;5071425;28;20383;-76
2021/12/14 05:20:00;;;;;;;19.77;11.10;;;;;;;-0.28;76.31;95238.09;5069754;28;20498;-76
2021/12/14 05:22:29;;;;;;;18.70;10.48;;;;;;;-0.27;75.82;95233.81;5071108;28;20049;-76
2021/12/14 05:25:00;;;;;;;19.35;11.60;;;;;;;-0.28;75.82;95222.78;5069782;28;20028;-76
2021/12/14 05:27:29;;;;;;;24.13;12.50;;;;;;;-0.42;76.71;95229.22;5053915;28;20041;-76
2021/12/14 05:30:06;;;;;;;22.05;11.38;;;;;;;-0.34;76.73;95232.34;5069611;28;20519;-76
2021/12/14 05:32:32;;;;;;;20.10;11.70;;;;;;;-0.35;76.09;95228.97;5071034;28;20497;-76
2021/12/14 05:34:57;;;;;;;19.92;11.98;;;;;;;-0.36;75.89;95236.66;5069711;28;20028;-76
2021/12/14 05:37:28;;;;;;;18.50;11.18;;;;;;;-0.36;75.93;95240.06;5053064;28;20418;-76
2021/12/14 05:39:59;;;;;;;22.05;12.50;;;;;;;-0.35;76.71;95234.06;5053452;28;20422;-76
2021/12/14 05:45:13;;;;;;;19.10;11.70;;;;;;;-0.35;76.07;95240.91;5069629;28;20516;-76
2021/12/14 05:47:53;;;;;;;21.63;12.50;;;;;;;-0.37;76.44;95248.59;5071176;28;20115;-76
2021/12/14 05:50:26;;;;;;;23.42;12.57;;;;;;;-0.43;76.89;95237.78;5053294;28;20528;-76
2021/12/14 05:52:51;;;;;;;28.27;13.73;;;;;;;-0.36;77.21;95254.53;5069633;28;20111;-76
2021/12/14 05:55:24;;;;;;;29.05;14.95;;;;;;;-0.41;77.06;95253.88;5070510;28;20477;-76
2021/12/14 05:57:49;;;;;;;29.98;14.85;;;;;;;-0.34;76.13;95253.59;5069645;28;20041;-76
2021/12/14 06:00:15;;;;;;;27.67;13.95;;;;;;;-0.30;76.71;95250.06;5069319;28;20036;-76
2021/12/14 06:02:40;;;;;;;24.30;13.05;;;;;;;-0.23;75.71;95261.72;5069583;28;20468;-76
2021/12/14 06:05:11;;;;;;;26.38;13.63;;;;;;;-0.24;76.17;95265.19;5070525;28;20108;-76
2021/12/14 06:07:36;;;;;;;25.93;14.30;;;;;;;-0.38;75.92;95256.31;5053417;28;20089;-76
2021/12/14 06:10:02;;;;;;;23.15;12.73;;;;;;;-0.28;76.48;95273.00;5069134;28;20028;-76
2021/12/14 06:12:32;;;;;;;23.40;12.25;;;;;;;-0.25;75.79;95273.75;5070742;28;20137;-76
2021/12/14 06:14:59;;;;;;;20.97;12.13;;;;;;;-0.23;75.96;95266.00;5055617;28;20039;-76
2021/12/14 06:17:29;;;;;;;24.05;13.10;;;;;;;-0.26;76.04;95266.94;5073177;28;20025;-76
2021/12/14 06:19:59;;;;;;;23.38;13.23;;;;;;;-0.24;75.81;95275.41;5056687;28;20041;-76
2021/12/14 06:22:25;;;;;;;20.83;12.10;;;;;;;-0.20;76.28;95276.13;5057072;28;20025;-76
2021/12/14 06:24:53;;;;;;;22.77;13.05;;;;;;;-0.20;75.95;95280.41;5072844;28;20044;-76
2021/12/14 06:27:20;;;;;;;23.15;13.32;;;;;;;-0.19;75.59;95275.25;5056309;28;20123;-76
2021/12/14 06:29:45;;;;;;;25.52;13.95;;;;;;;-0.20;76.12;95278.69;5056005;28;20032;-76
2021/12/14 06:32:25;;;;;;;24.88;13.60;;;;;;;-0.14;76.11;95281.06;5074167;28;20032;-76
2021/12/14 06:35:08;;;;;;;22.60;14.25;;;;;;;-0.28;76.45;95275.53;5057850;28;20417;-76
2021/12/14 06:40:13;;;;;;;26.15;14.18;;;;;;;-0.44;77.40;95274.41;5074219;28;20033;-76
2021/12/14 06:42:44;;;;;;;31.55;16.23;;;;;;;-0.39;77.58;95293.78;5074147;28;20107;-76
2021/12/14 06:45:16;;;;;;;28.25;15.18;;;;;;;-0.36;77.72;95297.94;5055804;28;20044;-76
2021/12/14 06:47:42;;;;;;;27.52;14.88;;;;;;;-0.36;77.39;95290.28;5072500;28;20032;-76
2021/12/14 06:50:12;;;;;;;24.55;14.65;;;;;;;-0.31;77.35;95296.91;5073558;28;20041;-76
2021/12/14 06:52:38;;;;;;;25.40;14.30;;;;;;;-0.33;77.92;95297.88;5072483;28;20036;-76
2021/12/14 06:55:04;;;;;;;28.90;15.90;;;;;;;-0.24;77.52;95303.50;5072143;28;20053;-76
2021/12/14 06:57:30;;;;;;;27.00;15.25;;;;;;;-0.25;77.63;95308.66;5055526;28;20482;-76
2021/12/14 06:59:55;;;;;;;23.30;14.27;;;;;;;-0.14;78.20;95313.41;5073295;28;20078;-76
2021/12/14 07:02:22;;;;;;;26.13;15.10;;;;;;;-0.18;78.26;95310.13;5072333;28;20086;-76
2021/12/14 07:04:49;;;;;;;23.95;14.05;;;;;;;-0.22;78.25;95300.91;5071995;28;20036;-76
2021/12/14 07:07:17;;;;;;;27.88;15.23;;;;;;;-0.11;77.91;95315.84;5071915;28;20102;-76
2021/12/14 07:09:54;;;;;;;31.08;15.32;;;;;;;-0.16;78.23;95305.81;5071889;28;20509;-76
2021/12/14 07:12:21;;;;;;;24.00;14.48;;;;;;;-0.12;77.96;95309.91;5072045;28;20086;-76
2021/12/14 07:14:50;;;;;;;26.65;15.23;;;;;;;-0.10;77.65;95318.34;5071873;28;20482;-76
2021/12/14 07:17:19;;;;;;;24.85;13.77;;;;;;;-0.07;77.23;95323.38;5071902;28;20111;-76
2021/12/14 07:19:53;;;;;;;26.90;16.15;;;;;;;-0.12;77.32;95314.19;5055254;28;20028;-76
2021/12/14 07:22:32;;;;;;;40.67;18.27;;;;;;;-0.09;77.55;95316.63;5071897;28;20028;-76
2021/12/14 07:25:08;;;;;;;34.47;18.35;;;;;;;-0.20;78.01;95316.97;5071017;28;20021;-76
2021/12/14 07:27:47;;;;;;;28.67;15.98;;;;;;;-0.36;78.41;95320.91;5071868;28;20029;-77
2021/12/14 07:30:20;;;;;;;32.05;16.88;;;;;;;-0.37;79.04;95324.38;5055664;28;20031;-76
2021/12/14 07:33:01;;;;;;;31.02;17.80;;;;;;;-0.35;79.26;95320.06;5073132;28;20119;-76
2021/12/14 07:35:31;;;;;;;30.45;16.52;;;;;;;-0.23;79.07;95332.41;5055299;28;20021;-76
2021/12/14 07:38:04;;;;;;;34.25;19.60;;;;;;;-0.20;79.04;95323.81;5072962;28;20093;-76
2021/12/14 07:40:37;;;;;;;32.08;15.65;;;;;;;-0.17;78.64;95327.09;5055424;28;20035;-76
2021/12/14 07:43:11;;;;;;;25.63;15.40;;;;;;;-0.14;78.79;95327.03;5071404;28;20093;-76
2021/12/14 07:45:36;;;;;;;28.40;17.45;;;;;;;-0.09;77.99;95324.28;5071194;28;20047;-76
2021/12/14 07:48:02;;;;;;;25.40;15.82;;;;;;;-0.14;78.48;95332.13;5072946;28;20542;-76
2021/12/14 07:50:56;;;;;;;28.25;15.65;;;;;;;-0.06;78.20;95334.41;5070923;28;20392;-76
2021/12/14 07:53:32;;;;;;;37.92;20.13;;;;;;;-0.06;78.22;95340.34;5072762;28;20033;-76
2021/12/14 07:55:57;;;;;;;38.53;22.00;;;;;;;-0.07;78.29;95338.69;5054193;28;20201;-76
2021/12/14 07:58:34;;;;;;;36.80;18.10;;;;;;;-0.40;79.12;95342.34;5071081;28;20111;-76
2021/12/14 08:01:00;;;;;;;40.03;21.30;;;;;;;-0.25;79.58;95336.75;5054778;28;20025;-76
2021/12/14 08:03:28;;;;;;;35.58;21.13;;;;;;;-0.27;79.68;95333.41;5054296;28;20032;-76
2021/12/14 08:05:54;;;;;;;37.38;19.40;;;;;;;-0.12;78.95;95347.38;5054670;28;20282;-76
2021/12/14 08:08:31;;;;;;;28.33;17.52;;;;;;;0.03;78.90;95354.56;5054172;28;20109;-76
2021/12/14 08:11:27;;;;;;;33.10;18.80;;;;;;;0.08;78.08;95349.28;5055164;28;20589;-76
2021/12/14 08:13:53;;;;;;;27.70;16.65;;;;;;;0.11;78.08;95351.72;5071006;28;20493;-76
2021/12/14 08:16:18;;;;;;;37.25;21.58;;;;;;;0.14;77.90;95361.84;5074065;28;20059;-76
2021/12/14 08:18:44;;;;;;;33.92;21.67;;;;;;;0.03;78.10;95349.47;5066143;28;20032;-76
2021/12/14 08:21:11;;;;;;;31.52;18.55;;;;;;;0.14;77.98;95364.41;5068960;28;20059;-76
2021/12/14 08:24:00;;;;;;;42.17;24.13;;;;;;;0.16;78.28;95353.25;5071008;28;20432;-76
2021/12/14 08:26:25;;;;;;;39.63;21.80;;;;;;;0.24;77.85;95357.28;5068376;28;20043;-76
2021/12/14 08:29:05;;;;;;;42.00;24.92;;;;;;;0.10;77.76;95355.19;5088448;28;20032;-77
2021/12/14 08:31:33;;;;;;;31.42;18.73;;;;;;;0.13;78.14;95360.19;5090008;28;20028;-77
2021/12/14 08:34:03;;;;;;;34.67;19.48;;;;;;;0.20;77.33;95359.94;5090477;28;20022;-77
2021/12/14 08:36:54;;;;;;;28.70;16.80;;;;;;;0.07;77.71;95339.97;5088738;28;20039;-78
2021/12/14 08:39:28;;;;;;;29.10;18.13;;;;;;;0.22;77.82;95360.72;5074286;28;22207;-77
2021/12/14 08:42:13;;;;;;;30.02;18.25;;;;;;;0.28;77.82;95354.56;5069991;28;20028;-76
2021/12/14 08:44:40;;;;;;;29.25;16.98;;;;;;;0.33;77.11;95350.13;5054748;28;20490;-76
2021/12/14 08:47:11;;;;;;;32.75;18.17;;;;;;;0.34;77.63;95354.34;5077263;28;20558;-77
2021/12/14 08:49:37;;;;;;;43.70;25.25;;;;;;;0.33;77.29;95350.13;5063742;28;20029;-75
2021/12/14 08:52:03;;;;;;;50.08;29.63;;;;;;;0.40;77.55;95346.47;5078154;28;20588;-76
2021/12/14 08:54:29;;;;;;;31.05;17.63;;;;;;;0.46;77.01;95349.72;5078588;28;20028;-78
2021/12/14 08:57:00;;;;;;;29.83;16.88;;;;;;;0.44;77.58;95345.47;5071318;28;20060;-78
2021/12/14 08:59:26;;;;;;;50.47;28.35;;;;;;;0.50;77.33;95346.16;5067867;28;20049;-78
2021/12/14 09:01:52;;;;;;;44.97;25.02;;;;;;;0.54;77.14;95347.72;5069331;28;20512;-78
2021/12/14 09:04:19;;;;;;;35.28;20.25;;;;;;;0.55;77.17;95337.44;5073269;28;20056;-78
2021/12/14 09:06:46;;;;;;;57.53;30.58;;;;;;;0.57;77.10;95345.06;5069840;28;20426;-78
2021/12/14 09:09:13;;;;;;;36.70;19.08;;;;;;;0.59;76.73;95339.00;5075034;28;20037;-78
2021/12/14 09:11:40;;;;;;;30.88;17.08;;;;;;;0.63;76.83;95339.72;5070102;28;20375;-77
2021/12/14 09:14:09;;;;;;;38.33;22.15;;;;;;;0.61;76.83;95326.16;5086863;28;20024;-76
2021/12/14 09:16:35;;;;;;;91.95;44.22;;;;;;;0.70;76.67;95337.75;5089756;28;20413;-77
2021/12/14 09:19:22;;;;;;;198.20;85.95;;;;;;;0.64;77.07;95326.88;5061205;28;20028;-76
2021/12/14 09:21:52;;;;;;;206.43;74.88;;;;;;;0.66;76.78;95326.81;5055764;28;20460;-77
2021/12/14 09:24:19;;;;;;;107.90;46.50;;;;;;;0.74;76.67;95318.88;5069608;28;20414;-76
2021/12/14 09:26:47;;;;;;;37.10;20.27;;;;;;;0.79;76.55;95320.38;5069505;28;20406;-76
2021/12/14 09:29:14;;;;;;;153.55;64.05;;;;;;;0.75;76.03;95315.41;5070713;28;20024;-76
2021/12/14 09:31:41;;;;;;;58.47;31.55;;;;;;;0.71;76.16;95312.16;5085212;28;20115;-76
2021/12/14 09:34:08;;;;;;;86.60;38.47;;;;;;;0.74;76.16;95312.03;5089659;28;20077;-76
2021/12/14 09:36:35;;;;;;;54.63;28.13;;;;;;;0.73;75.82;95305.25;5089650;28;20639;-76
2021/12/14 09:39:15;;;;;;;38.55;22.00;;;;;;;0.70;76.89;95315.59;5089710;28;20021;-76
2021/12/14 09:41:42;;;;;;;38.78;21.38;;;;;;;0.72;76.14;95301.00;5088585;28;20032;-76
2021/12/14 09:44:10;;;;;;;44.88;25.55;;;;;;;0.74;76.34;95296.69;5089950;28;20032;-77
2021/12/14 09:46:36;;;;;;;38.53;22.92;;;;;;;0.57;77.81;95311.81;5069053;28;20051;-76
2021/12/14 09:49:03;;;;;;;52.40;26.20;;;;;;;0.30;78.33;95295.72;5072857;28;20123;-76
2021/12/14 09:51:35;;;;;;;57.33;28.38;;;;;;;0.31;79.12;95303.34;5074537;28;20550;-76
2021/12/14 09:54:03;;;;;;;39.45;23.88;;;;;;;0.48;78.19;95294.25;5074605;28;20017;-76
2021/12/14 09:56:36;;;;;;;33.42;20.85;;;;;;;0.57;77.77;95301.59;5056674;28;20048;-77
2021/12/14 09:59:03;;;;;;;51.38;27.98;;;;;;;0.61;76.93;95309.09;5056904;28;20120;-76
2021/12/14 10:01:41;;;;;;;45.40;25.27;;;;;;;0.64;77.99;95296.22;5074169;28;20032;-76
2021/12/14 10:04:10;;;;;;;119.47;46.67;;;;;;;0.71;76.99;95301.91;5073054;28;20033;-76
2021/12/14 10:06:35;;;;;;;122.95;46.20;;;;;;;0.77;77.28;95300.84;5056160;28;20037;-76
2021/12/14 10:09:07;;;;;;;59.85;31.65;;;;;;;0.82;76.93;95302.34;5072988;28;20028;-76
2021/12/14 10:12:01;;;;;;;47.08;25.98;;;;;;;0.83;76.10;95293.78;5056871;28;20037;-76
2021/12/14 10:14:33;;;;;;;63.90;30.48;;;;;;;0.87;75.68;95302.19;5058920;28;20453;-76
2021/12/14 10:16:59;;;;;;;94.63;35.50;;;;;;;0.88;76.37;95301.28;5072826;28;20461;-76
2021/12/14 10:19:26;;;;;;;62.25;31.63;;;;;;;0.95;76.16;95294.22;5072945;28;20036;-76
2021/12/14 10:22:04;;;;;;;58.05;29.70;;;;;;;0.98;74.80;95282.16;5056160;28;20032;-76
2021/12/14 10:24:30;;;;;;;47.65;27.25;;;;;;;1.05;75.76;95291.25;5063627;28;20051;-77
2021/12/14 10:26:59;;;;;;;40.70;24.52;;;;;;;1.04;75.26;95286.22;5077943;28;20486;-79
2021/12/14 10:29:28;;;;;;;70.75;40.50;;;;;;;1.05;75.65;95287.88;5067184;28;20034;-83
2021/12/14 10:31:59;;;;;;;78.40;44.72;;;;;;;0.99;76.17;95275.31;5076403;28;20028;-79
2021/12/14 10:34:25;;;;;;;245.75;95.95;;;;;;;1.04;75.31;95281.09;5090453;28;20024;-79
2021/12/14 10:37:18;;;;;;;153.23;67.15;;;;;;;1.01;75.99;95287.16;5071974;28;20039;-82
2021/12/14 10:45:14;;;;;;;48.20;24.90;;;;;;;1.10;76.33;95291.09;5089471;28;20471;-79
2021/12/14 10:47:41;;;;;;;40.97;23.15;;;;;;;0.92;76.81;95259.38;5071418;28;20033;-75
2021/12/14 10:50:09;;;;;;;69.78;37.05;;;;;;;1.13;76.70;95288.41;5088381;28;20086;-79
2021/12/14 10:52:40;;;;;;;84.85;36.75;;;;;;;1.06;76.89;95287.00;5088545;28;20028;-79
2021/12/14 10:55:18;;;;;;;47.07;23.37;;;;;;;1.14;76.74;95290.06;5065261;28;20131;-79
2021/12/14 10:57:44;;;;;;;28.20;15.98;;;;;;;1.09;76.96;95289.44;5063209;28;20482;-79
2021/12/14 11:00:29;;;;;;;27.15;16.05;;;;;;;1.09;76.15;95282.59;5065616;28;20032;-79
2021/12/14 11:03:01;;;;;;;25.45;14.38;;;;;;;1.14;76.08;95279.81;5073962;28;20517;-79
2021/12/14 11:05:28;;;;;;;125.30;58.13;;;;;;;1.10;76.16;95268.88;5093430;28;20031;-79
2021/12/14 11:07:53;;;;;;;51.15;27.67;;;;;;;1.12;76.21;95276.53;5075627;28;20036;-79
2021/12/14 11:10:30;;;;;;;41.88;24.52;;;;;;;1.14;76.08;95272.16;5091189;28;20089;-79
2021/12/14 11:12:58;;;;;;;32.70;19.15;;;;;;;1.16;76.22;95275.50;5092123;28;20071;-79
2021/12/14 11:15:30;;;;;;;33.42;18.58;;;;;;;1.22;75.79;95266.75;5091327;28;20024;-79
2021/12/14 11:18:10;;;;;;;30.58;18.52;;;;;;;1.27;75.40;95264.84;5075875;28;20115;-79
2021/12/14 11:20:38;;;;;;;31.05;17.48;;;;;;;1.22;75.46;95256.50;5077498;28;20444;-79
2021/12/14 11:23:26;;;;;;;30.70;18.23;;;;;;;1.23;75.98;95264.13;5092790;28;20040;-79
2021/12/14 11:25:51;;;;;;;29.63;17.85;;;;;;;1.30;75.90;95265.53;5093588;28;20028;-79
2021/12/14 11:28:33;;;;;;;31.80;17.85;;;;;;;1.32;76.26;95263.75;5092654;28;20089;-80
2021/12/14 11:31:25;;;;;;;35.30;20.17;;;;;;;1.26;76.28;95264.00;5093399;28;20024;-79
2021/12/14 11:33:50;;;;;;;;;;;;;;;1.23;76.08;95259.03;5092794;28;20093;-78
2021/12/14 11:36:24;;;;;;;35.90;20.23;;;;;;;1.15;76.69;95249.97;5093118;28;19911;-79
2021/12/14 11:39:11;;;;;;;38.88;22.08;;;;;;;1.18;75.98;95245.56;5059203;28;20032;-79
2021/12/14 11:41:37;;;;;;;35.95;21.02;;;;;;;1.28;75.50;95252.00;5093376;28;20048;-79
2021/12/14 11:44:15;;;;;;;38.10;20.83;;;;;;;1.22;75.31;95241.97;5093421;28;20029;-79
2021/12/14 11:47:40;;;;;;;51.05;28.08;;;;;;;1.30;75.64;95255.31;5092011;28;20028;-79
2021/12/14 11:50:03;;;;;;;46.58;27.05;;;;;;;1.34;75.13;95253.47;5093042;28;20046;-79
2021/12/14 11:52:41;;;;;;;53.83;34.03;;;;;;;1.28;75.72;95257.13;5075765;28;20064;-79
2021/12/14 11:55:15;;;;;;;57.92;34.20;;;;;;;1.24;75.73;95249.59;5093136;28;20040;-79
2021/12/14 11:57:42;;;;;;;82.57;42.63;;;;;;;1.25;76.32;95244.41;5093423;28;20039;-79
2021/12/14 12:00:09;;;;;;;78.15;41.28;;;;;;;1.29;75.69;95245.97;5074634;28;20105;-79
2021/12/14 12:02:35;;;;;;;138.07;63.33;;;;;;;1.32;75.64;95252.69;5075130;28;20101;-79
2021/12/14 12:05:22;;;;;;;90.72;48.08;;;;;;;1.25;76.02;95249.53;5091620;28;20024;-79
2021/12/14 12:10:42;;;;;;;77.13;42.63;;;;;;;1.18;76.38;95249.84;5077494;28;20039;-78
2021/12/14 12:13:07;;;;;;;65.43;35.58;;;;;;;1.25;76.07;95254.66;5091350;28;20382;-79